createdAt,value
2023-04-18T00:02:03.171Z,100538.38
2023-04-18T00:04:31.321Z,100535.25
2023-04-18T00:06:59.703Z,100535.31
2023-04-18T00:09:27.703Z,100527.72
2023-04-18T00:11:56.064Z,100536.63
2023-04-18T00:14:24.021Z,100529.59
2023-04-18T00:16:54.351Z,100529.47
2023-04-18T00:19:22.554Z,100525.66
2023-04-18T00:21:53.397Z,100533.19
2023-04-18T00:24:21.321Z,100531.69
2023-04-18T00:26:49.633Z,100524.97
2023-04-18T00:29:17.493Z,100521.75
2023-04-18T00:31:45.795Z,100518.63
2023-04-18T00:34:14.009Z,100522.56
2023-04-18T00:36:42.843Z,100519.59
2023-04-18T00:39:10.963Z,100519.44
2023-04-18T00:41:39.247Z,100525.69
2023-04-18T00:44:07.160Z,100521.25
2023-04-18T00:46:35.613Z,100513.34
2023-04-18T00:49:03.798Z,100511.84
2023-04-18T00:51:32.785Z,100518.78
2023-04-18T00:54:00.889Z,100511.69
2023-04-18T00:56:29.685Z,100518.44
2023-04-18T00:58:59.513Z,100511.28
2023-04-18T01:01:27.909Z,100514.22
2023-04-18T01:03:56.091Z,100511.94
2023-04-18T01:06:24.775Z,100508.38
2023-04-18T01:08:54.213Z,100509.06
2023-04-18T01:11:22.653Z,100520.19
2023-04-18T01:14:01.410Z,100508.94
2023-04-18T01:16:30.103Z,100513.50
2023-04-18T01:18:58.023Z,100517.63
2023-04-18T01:21:27.067Z,100512.63
2023-04-18T01:23:54.995Z,100501.09
2023-04-18T01:26:23.508Z,100504.03
2023-04-18T01:28:51.544Z,100503.16
2023-04-18T01:31:20.360Z,100502.19
2023-04-18T01:33:48.275Z,100502.38
2023-04-18T01:36:17.526Z,100499.69
2023-04-18T01:38:45.398Z,100489.06
2023-04-18T01:41:13.714Z,100490.25
2023-04-18T01:43:43.524Z,100493.56
2023-04-18T01:46:12.283Z,100481.16
2023-04-18T01:48:40.218Z,100485.03
2023-04-18T01:51:08.864Z,100487.59
2023-04-18T01:53:39.315Z,100482.66
2023-04-18T01:56:07.693Z,100484.59
2023-04-18T01:58:36.263Z,100486.94
2023-04-18T02:01:04.819Z,100483.06
2023-04-18T02:03:33.075Z,100481.16
2023-04-18T02:06:02.162Z,100485.31
2023-04-18T02:08:31.142Z,100480.59
2023-04-18T02:10:59.563Z,100489.69
2023-04-18T02:13:27.577Z,100486.94
2023-04-18T02:15:55.808Z,100486.72
2023-04-18T02:18:25.436Z,100489.50
2023-04-18T02:20:53.826Z,100485.31
2023-04-18T02:23:23.153Z,100483.94
2023-04-18T02:25:51.768Z,100479.06
2023-04-18T02:28:19.670Z,100480.84
2023-04-18T02:30:47.905Z,100480.75
2023-04-18T02:33:15.774Z,100473.19
2023-04-18T02:35:44.115Z,100487.31
2023-04-18T02:38:12.054Z,100475.50
2023-04-18T02:40:40.318Z,100476.56
2023-04-18T02:43:08.526Z,100487.41
2023-04-18T02:45:37.011Z,100482.91
2023-04-18T02:48:05.616Z,100482.03
2023-04-18T02:50:35.973Z,100484.16
2023-04-18T02:53:03.977Z,100485.59
2023-04-18T02:55:44.745Z,100478.16
2023-04-18T02:58:12.905Z,100483.31
2023-04-18T03:01:00.211Z,100472.72
2023-04-18T03:03:48.382Z,100471.06
2023-04-18T03:06:34.976Z,100471.06
2023-04-18T03:09:04.054Z,100480.53
2023-04-18T03:11:35.743Z,100469.56
2023-04-18T03:14:04.340Z,100472.56
2023-04-18T03:16:42.205Z,100475.03
2023-04-18T03:19:13.797Z,100479.38
2023-04-18T03:21:42.155Z,100474.63
2023-04-18T03:24:12.319Z,100473.59
2023-04-18T03:26:43.252Z,100479.22
2023-04-18T03:29:11.677Z,100477.94
2023-04-18T03:31:42.251Z,100475.94
2023-04-18T03:34:10.352Z,100476.88
2023-04-18T03:36:38.773Z,100475.03
2023-04-18T03:39:07.115Z,100474.19
2023-04-18T03:41:36.584Z,100476.97
2023-04-18T03:44:04.972Z,100475.16
2023-04-18T03:46:36.847Z,100478.16
2023-04-18T03:49:05.850Z,100475.25
2023-04-18T03:51:41.749Z,100476.97
2023-04-18T03:54:09.671Z,100474.28
2023-04-18T03:56:38.581Z,100475.66
2023-04-18T03:59:06.587Z,100471.59
2023-04-18T04:01:35.026Z,100473.09
2023-04-18T04:04:04.291Z,100473.03
2023-04-18T04:06:33.134Z,100482.81
2023-04-18T04:09:02.275Z,100470.31
2023-04-18T04:11:30.874Z,100478.72
2023-04-18T04:13:59.141Z,100475.94
2023-04-18T04:16:33.901Z,100473.41
2023-04-18T04:19:02.608Z,100476.03
2023-04-18T04:21:37.887Z,100481.84
2023-04-18T04:24:07.979Z,100488.56
2023-04-18T04:26:43.489Z,100483.06
2023-04-18T04:29:19.509Z,100484.41
2023-04-18T04:31:49.957Z,100489.06
2023-04-18T04:34:27.484Z,100480.69
2023-04-18T04:36:56.190Z,100483.38
2023-04-18T04:39:26.071Z,100485.69
2023-04-18T04:42:20.444Z,100481.53
2023-04-18T04:44:56.810Z,100477.84
2023-04-18T04:47:26.318Z,100491.84
2023-04-18T04:49:55.295Z,100493.19
2023-04-18T04:52:23.982Z,100496.44
2023-04-18T04:54:52.031Z,100501.22
2023-04-18T04:57:22.350Z,100501.72
2023-04-18T04:59:50.362Z,100507.50
2023-04-18T05:02:18.825Z,100509.56
2023-04-18T05:04:46.955Z,100507.56
2023-04-18T05:07:15.962Z,100511.09
2023-04-18T05:09:43.851Z,100508.94
2023-04-18T05:12:12.092Z,100514.03
2023-04-18T05:14:39.944Z,100510.13
2023-04-18T05:17:08.626Z,100512.91
2023-04-18T05:19:36.624Z,100522.88
2023-04-18T05:22:04.951Z,100516.88
2023-04-18T05:24:32.985Z,100518.81
2023-04-18T05:27:01.877Z,100522.63
2023-04-18T05:29:29.829Z,100523.66
2023-04-18T05:31:58.092Z,100530.53
2023-04-18T05:34:26.027Z,100525.97
2023-04-18T05:36:54.293Z,100537.09
2023-04-18T05:39:22.253Z,100537.50
2023-04-18T05:41:50.465Z,100533.16
2023-04-18T05:44:18.745Z,100537.75
2023-04-18T05:46:51.471Z,100536.75
2023-04-18T05:49:19.593Z,100536.53
2023-04-18T05:51:50.016Z,100540.00
2023-04-18T05:54:18.011Z,100537.56
2023-04-18T05:56:46.272Z,100543.44
2023-04-18T05:59:14.568Z,100542.72
2023-04-18T06:01:43.812Z,100546.63
2023-04-18T06:04:12.008Z,100550.16
2023-04-18T06:06:40.816Z,100549.16
2023-04-18T06:09:09.099Z,100558.56
2023-04-18T06:11:37.448Z,100559.00
2023-04-18T06:14:05.395Z,100560.41
2023-04-18T06:16:33.829Z,100561.97
2023-04-18T06:19:03.321Z,100561.78
2023-04-18T06:21:31.758Z,100567.50
2023-04-18T06:24:01.566Z,100563.47
2023-04-18T06:26:32.259Z,100564.56
2023-04-18T06:29:00.184Z,100557.81
2023-04-18T06:31:28.803Z,100563.91
2023-04-18T06:33:56.789Z,100567.97
2023-04-18T06:36:25.254Z,100568.47
2023-04-18T06:38:53.218Z,100571.47
2023-04-18T06:41:21.560Z,100570.22
2023-04-18T06:44:02.101Z,100563.19
2023-04-18T06:46:32.396Z,100564.63
2023-04-18T06:49:00.682Z,100560.31
2023-04-18T06:51:29.296Z,100557.47
2023-04-18T06:53:57.258Z,100566.94
2023-04-18T06:56:25.560Z,100575.94
2023-04-18T06:58:53.518Z,100567.81
2023-04-18T07:01:21.870Z,100574.59
2023-04-18T07:03:49.978Z,100571.97
2023-04-18T07:06:18.924Z,100570.84
2023-04-18T07:08:46.968Z,100576.75
2023-04-18T07:11:15.853Z,100579.34
2023-04-18T07:13:43.782Z,100569.28
2023-04-18T07:16:12.135Z,100577.84
2023-04-18T07:18:40.054Z,100575.97
2023-04-18T07:21:08.335Z,100582.13
2023-04-18T07:23:36.344Z,100576.84
2023-04-18T07:26:05.923Z,100576.53
2023-04-18T07:28:33.852Z,100578.47
2023-04-18T07:31:03.592Z,100578.56
2023-04-18T07:33:34.046Z,100581.13
2023-04-18T07:36:03.474Z,100580.84
2023-04-18T07:38:31.523Z,100584.38
2023-04-18T07:41:00.262Z,100576.03
2023-04-18T07:43:28.328Z,100588.13
2023-04-18T07:45:56.691Z,100586.91
2023-04-18T07:48:25.857Z,100591.25
2023-04-18T07:50:54.474Z,100593.91
2023-04-18T07:53:22.425Z,100592.81
2023-04-18T07:55:50.944Z,100591.00
2023-04-18T07:58:18.876Z,100597.50
2023-04-18T08:00:47.616Z,100602.09
2023-04-18T08:03:16.397Z,100596.34
2023-04-18T08:05:44.750Z,100604.63
2023-04-18T08:08:12.991Z,100604.91
2023-04-18T08:10:41.373Z,100597.34
2023-04-18T08:13:09.745Z,100608.16
2023-04-18T08:15:38.096Z,100608.78
2023-04-18T08:18:06.183Z,100610.63
2023-04-18T08:20:36.557Z,100618.13
2023-04-18T08:23:07.901Z,100608.97
2023-04-18T08:25:37.967Z,100625.81
2023-04-18T08:28:05.839Z,100621.97
2023-04-18T08:30:34.335Z,100623.78
2023-04-18T08:33:02.740Z,100628.69
2023-04-18T08:35:31.548Z,100626.00
2023-04-18T08:37:59.715Z,100629.69
2023-04-18T08:40:30.424Z,100621.28
2023-04-18T08:42:59.657Z,100631.13
2023-04-18T08:45:29.273Z,100628.41
2023-04-18T08:47:59.135Z,100627.81
2023-04-18T08:50:28.015Z,100629.38
2023-04-18T08:52:56.331Z,100625.94
2023-04-18T08:55:24.677Z,100627.44
2023-04-18T08:57:54.813Z,100631.91
2023-04-18T09:00:23.886Z,100637.13
2023-04-18T09:02:57.368Z,100632.94
2023-04-18T09:05:27.747Z,100634.75
2023-04-18T09:07:56.600Z,100629.19
2023-04-18T09:10:26.815Z,100631.38
2023-04-18T09:12:55.572Z,100630.34
2023-04-18T09:15:27.133Z,100624.53
2023-04-18T09:17:56.593Z,100618.34
2023-04-18T09:20:41.436Z,100625.69
2023-04-18T09:23:16.366Z,100617.75
2023-04-18T09:25:48.385Z,100630.06
2023-04-18T09:28:24.170Z,100624.22
2023-04-18T09:30:53.246Z,100612.66
2023-04-18T09:33:34.260Z,100614.31
2023-04-18T09:36:37.787Z,100619.31
2023-04-18T09:39:05.661Z,100620.50
2023-04-18T09:41:33.917Z,100622.78
2023-04-18T09:44:17.727Z,100620.50
2023-04-18T09:46:47.548Z,100621.41
2023-04-18T09:49:17.119Z,100626.84
2023-04-18T09:51:46.483Z,100619.72
2023-04-18T09:54:18.502Z,100620.91
2023-04-18T09:56:47.836Z,100622.00
2023-04-18T09:59:21.137Z,100622.03
2023-04-18T10:01:49.937Z,100629.41
2023-04-18T10:04:18.549Z,100618.44
2023-04-18T10:06:47.560Z,100619.69
2023-04-18T10:09:16.683Z,100617.38
2023-04-18T10:11:45.161Z,100615.84
2023-04-18T10:14:14.219Z,100624.34
2023-04-18T10:16:45.751Z,100619.69
2023-04-18T10:19:20.126Z,100615.81
2023-04-18T10:21:52.063Z,100622.72
2023-04-18T10:24:38.573Z,100616.63
2023-04-18T10:27:07.254Z,100608.84
2023-04-18T10:29:49.113Z,100611.13
2023-04-18T10:32:19.115Z,100616.97
2023-04-18T10:34:47.745Z,100608.84
2023-04-18T10:37:17.853Z,100605.31
2023-04-18T10:39:57.415Z,100600.03
2023-04-18T10:42:44.988Z,100604.03
2023-04-18T10:45:19.293Z,100599.34
2023-04-18T10:47:47.598Z,100600.00
2023-04-18T10:50:16.070Z,100601.47
2023-04-18T10:52:44.614Z,100599.03
2023-04-18T10:55:20.956Z,100588.34
2023-04-18T10:57:51.706Z,100586.75
2023-04-18T11:00:21.847Z,100585.38
2023-04-18T11:02:56.297Z,100583.56
2023-04-18T11:05:26.805Z,100582.53
2023-04-18T11:07:55.516Z,100581.31
2023-04-18T11:10:25.636Z,100582.16
2023-04-18T11:12:56.702Z,100572.97
2023-04-18T11:15:25.667Z,100581.91
2023-04-18T11:18:04.247Z,100576.06
2023-04-18T11:20:47.120Z,100567.50
2023-04-18T11:23:16.528Z,100571.38
2023-04-18T11:25:45.187Z,100570.94
2023-04-18T11:28:13.912Z,100575.06
2023-04-18T11:30:41.951Z,100564.84
2023-04-18T11:33:11.851Z,100568.38
2023-04-18T11:35:44.030Z,100559.41
2023-04-18T11:38:13.791Z,100566.75
2023-04-18T11:40:48.549Z,100557.34
2023-04-18T11:43:24.256Z,100540.88
2023-04-18T11:45:59.551Z,100557.84
2023-04-18T11:48:37.197Z,100557.25
2023-04-18T11:51:08.458Z,100563.72
2023-04-18T11:53:37.952Z,100561.94
2023-04-18T11:56:06.133Z,100575.06
2023-04-18T11:58:34.887Z,100566.28
2023-04-18T12:01:22.305Z,100568.91
2023-04-18T12:04:20.587Z,100559.00
2023-04-18T12:06:49.821Z,100565.00
2023-04-18T12:09:18.748Z,100559.22
2023-04-18T12:12:06.981Z,100551.63
2023-04-18T12:14:36.019Z,100552.34
2023-04-18T12:17:04.256Z,100558.34
2023-04-18T12:19:33.159Z,100562.47
2023-04-18T12:22:03.340Z,100557.28
2023-04-18T12:24:32.494Z,100566.03
2023-04-18T12:27:00.606Z,100562.75
2023-04-18T12:29:29.305Z,100560.16
2023-04-18T12:31:57.236Z,100562.16
2023-04-18T12:34:26.068Z,100564.28
2023-04-18T12:36:54.303Z,100554.66
2023-04-18T12:39:22.687Z,100552.75
2023-04-18T12:41:50.664Z,100551.44
2023-04-18T12:44:19.330Z,100553.59
2023-04-18T12:46:47.328Z,100565.22
2023-04-18T12:49:16.065Z,100560.84
2023-04-18T12:51:43.995Z,100559.75
2023-04-18T12:54:12.612Z,100566.66
2023-04-18T12:56:40.896Z,100565.25
2023-04-18T12:59:09.724Z,100564.19
2023-04-18T13:01:37.788Z,100556.16
2023-04-18T13:04:12.270Z,100555.03
2023-04-18T13:06:42.026Z,100548.75
2023-04-18T13:09:11.091Z,100556.25
2023-04-18T13:11:39.018Z,100558.41
2023-04-18T13:14:07.875Z,100554.19
2023-04-18T13:16:36.086Z,100540.97
2023-04-18T13:19:04.448Z,100541.75
2023-04-18T13:21:32.339Z,100544.13
2023-04-18T13:24:01.480Z,100550.69
2023-04-18T13:26:29.416Z,100549.78
2023-04-18T13:28:57.429Z,100559.00
2023-04-18T13:31:25.301Z,100547.28
2023-04-18T13:33:53.382Z,100547.88
2023-04-18T13:36:21.399Z,100559.94
2023-04-18T13:38:50.586Z,100551.97
2023-04-18T13:41:18.286Z,100550.56
2023-04-18T13:43:46.541Z,100542.59
2023-04-18T13:46:14.777Z,100537.38
2023-04-18T13:48:42.854Z,100540.72
2023-04-18T13:51:10.679Z,100543.13
2023-04-18T13:53:38.801Z,100535.13
2023-04-18T13:56:06.658Z,100543.56
2023-04-18T13:58:34.682Z,100541.16
2023-04-18T14:01:02.552Z,100545.59
2023-04-18T14:03:31.130Z,100548.91
2023-04-18T14:05:59.577Z,100547.75
2023-04-18T14:08:27.737Z,100541.25
2023-04-18T14:10:55.542Z,100554.53
2023-04-18T14:13:23.886Z,100542.03
2023-04-18T14:15:52.757Z,100548.81
2023-04-18T14:18:22.012Z,100554.75
2023-04-18T14:20:49.743Z,100544.97
2023-04-18T14:23:17.799Z,100546.25
2023-04-18T14:25:45.462Z,100542.22
2023-04-18T14:28:13.687Z,100550.25
2023-04-18T14:30:41.486Z,100542.50
2023-04-18T14:33:11.680Z,100542.50
2023-04-18T14:35:39.377Z,100548.06
2023-04-18T14:38:07.455Z,100550.44
2023-04-18T14:40:35.160Z,100547.66
2023-04-18T14:43:03.379Z,100545.03
2023-04-18T14:45:34.564Z,100541.72
2023-04-18T14:48:02.668Z,100530.53
2023-04-18T14:50:31.224Z,100544.41
2023-04-18T14:52:59.264Z,100537.94
2023-04-18T14:55:27.026Z,100535.78
2023-04-18T14:57:55.019Z,100535.13
2023-04-18T15:00:22.672Z,100529.13
2023-04-18T15:02:51.074Z,100530.50
2023-04-18T15:05:19.897Z,100535.78
2023-04-18T15:07:48.090Z,100536.59
2023-04-18T15:10:16.182Z,100539.56
2023-04-18T15:12:44.493Z,100537.84
2023-04-18T15:15:12.211Z,100542.06
2023-04-18T15:17:40.462Z,100536.34
2023-04-18T15:20:08.503Z,100533.31
2023-04-18T15:22:37.255Z,100535.53
2023-04-18T15:25:05.651Z,100534.31
2023-04-18T15:27:33.990Z,100533.78
2023-04-18T15:30:02.850Z,100542.16
2023-04-18T15:32:31.574Z,100549.53
2023-04-18T15:34:59.499Z,100530.84
2023-04-18T15:37:28.048Z,100541.59
2023-04-18T15:39:57.412Z,100534.25
2023-04-18T15:42:25.634Z,100538.66
2023-04-18T15:44:53.396Z,100545.25
2023-04-18T15:47:21.696Z,100545.97
2023-04-18T15:49:49.502Z,100542.06
2023-04-18T15:52:17.627Z,100545.88
2023-04-18T15:54:45.441Z,100546.50
2023-04-18T15:57:13.797Z,100537.13
2023-04-18T15:59:41.506Z,100541.34
2023-04-18T16:02:09.791Z,100543.41
2023-04-18T16:04:37.540Z,100546.09
2023-04-18T16:07:06.671Z,100549.03
2023-04-18T16:09:34.430Z,100554.53
2023-04-18T16:12:03.670Z,100546.66
2023-04-18T16:14:31.794Z,100546.53
2023-04-18T16:16:59.944Z,100554.22
2023-04-18T16:19:27.609Z,100557.44
2023-04-18T16:21:55.610Z,100558.50
2023-04-18T16:24:25.733Z,100571.09
2023-04-18T16:26:55.954Z,100563.06
2023-04-18T16:29:24.016Z,100562.53
2023-04-18T16:31:52.217Z,100569.63
2023-04-18T16:34:20.369Z,100581.94
2023-04-18T16:36:50.773Z,100574.25
2023-04-18T16:39:19.493Z,100570.34
2023-04-18T16:41:47.557Z,100575.28
2023-04-18T16:44:15.532Z,100581.19
2023-04-18T16:46:43.857Z,100579.19
2023-04-18T16:49:11.762Z,100581.06
2023-04-18T16:51:39.908Z,100588.59
2023-04-18T16:54:08.908Z,100586.56
2023-04-18T16:56:37.067Z,100578.00
2023-04-18T16:59:04.897Z,100593.94
2023-04-18T17:01:34.396Z,100593.63
2023-04-18T17:04:02.410Z,100594.69
2023-04-18T17:06:31.553Z,100591.56
2023-04-18T17:08:59.494Z,100589.97
2023-04-18T17:11:28.095Z,100593.53
2023-04-18T17:13:56.780Z,100596.19
2023-04-18T17:16:24.914Z,100592.47
2023-04-18T17:18:52.635Z,100594.84
2023-04-18T17:21:20.656Z,100594.50
2023-04-18T17:23:50.257Z,100596.81
2023-04-18T17:26:18.374Z,100608.47
2023-04-18T17:28:46.104Z,100598.31
2023-04-18T17:31:15.422Z,100604.19
2023-04-18T17:33:43.338Z,100601.47
2023-04-18T17:36:11.793Z,100601.09
2023-04-18T17:38:40.893Z,100606.81
2023-04-18T17:41:09.082Z,100604.09
2023-04-18T17:43:37.060Z,100604.88
2023-04-18T17:46:05.284Z,100615.34
2023-04-18T17:48:32.998Z,100611.78
2023-04-18T17:51:02.254Z,100606.03
2023-04-18T17:53:32.173Z,100615.34
2023-04-18T17:56:00.691Z,100619.22
2023-04-18T17:58:28.613Z,100619.63
2023-04-18T18:00:57.008Z,100626.56
2023-04-18T18:03:24.965Z,100625.88
2023-04-18T18:05:55.170Z,100626.66
2023-04-18T18:08:23.088Z,100631.72
2023-04-18T18:10:51.351Z,100635.22
2023-04-18T18:13:19.016Z,100639.41
2023-04-18T18:15:47.245Z,100639.41
2023-04-18T18:18:29.946Z,100642.06
2023-04-18T18:20:58.463Z,100641.56
2023-04-18T18:23:26.179Z,100646.19
2023-04-18T18:25:54.180Z,100649.63
2023-04-18T18:28:22.061Z,100658.91
2023-04-18T18:30:50.160Z,100656.47
2023-04-18T18:33:17.996Z,100664.06
2023-04-18T18:35:46.068Z,100668.63
2023-04-18T18:38:14.180Z,100663.38
2023-04-18T18:40:42.296Z,100669.41
2023-04-18T18:43:10.151Z,100671.75
2023-04-18T18:45:38.596Z,100676.13
2023-04-18T18:48:07.565Z,100690.28
2023-04-18T18:50:35.952Z,100690.34
2023-04-18T18:53:03.844Z,100687.09
2023-04-18T18:55:32.231Z,100695.50
2023-04-18T18:57:59.977Z,100702.84
2023-04-18T19:00:28.193Z,100705.16
2023-04-18T19:02:56.182Z,100702.13
2023-04-18T19:05:24.595Z,100710.16
2023-04-18T19:07:52.431Z,100710.25
2023-04-18T19:10:21.500Z,100718.53
2023-04-18T19:12:49.194Z,100720.56
2023-04-18T19:15:18.826Z,100726.13
2023-04-18T19:17:46.567Z,100731.81
2023-04-18T19:20:14.899Z,100734.09
2023-04-18T19:22:42.597Z,100731.72
2023-04-18T19:25:10.712Z,100735.44
2023-04-18T19:27:38.427Z,100734.88
2023-04-18T19:30:07.001Z,100739.28
2023-04-18T19:32:34.856Z,100740.97
2023-04-18T19:35:03.155Z,100736.75
2023-04-18T19:37:31.127Z,100756.88
2023-04-18T19:39:59.216Z,100748.84
2023-04-18T19:42:27.404Z,100753.19
2023-04-18T19:44:56.601Z,100751.25
2023-04-18T19:47:24.421Z,100754.44
2023-04-18T19:49:52.549Z,100763.88
2023-04-18T19:52:20.537Z,100766.94
2023-04-18T19:54:48.847Z,100755.13
2023-04-18T19:57:16.568Z,100757.16
2023-04-18T19:59:44.687Z,100758.94
2023-04-18T20:02:12.434Z,100761.00
2023-04-18T20:04:42.266Z,100766.88
2023-04-18T20:07:10.065Z,100776.66
2023-04-18T20:09:38.242Z,100769.00
2023-04-18T20:12:06.533Z,100774.28
2023-04-18T20:14:35.007Z,100780.41
2023-04-18T20:17:02.704Z,100783.16
2023-04-18T20:19:30.968Z,100786.53
2023-04-18T20:21:58.818Z,100785.34
2023-04-18T20:24:28.396Z,100780.53
2023-04-18T20:26:57.906Z,100786.50
2023-04-18T20:29:27.276Z,100788.00
2023-04-18T20:31:54.955Z,100792.81
2023-04-18T20:34:23.244Z,100796.78
2023-04-18T20:36:52.616Z,100794.13
2023-04-18T20:39:20.735Z,100798.31
2023-04-18T20:41:51.602Z,100802.28
2023-04-18T20:44:21.128Z,100797.13
2023-04-18T20:46:48.882Z,100805.31
2023-04-18T20:49:17.477Z,100801.47
2023-04-18T20:51:45.550Z,100795.59
2023-04-18T20:54:13.840Z,100810.34
2023-04-18T20:56:41.814Z,100811.97
2023-04-18T20:59:09.919Z,100800.97
2023-04-18T21:01:37.666Z,100803.22
2023-04-18T21:04:05.986Z,100812.47
2023-04-18T21:06:33.845Z,100814.81
2023-04-18T21:09:01.965Z,100821.84
2023-04-18T21:11:29.715Z,100824.69
2023-04-18T21:13:57.779Z,100825.94
2023-04-18T21:16:26.009Z,100828.72
2023-04-18T21:18:55.473Z,100823.34
2023-04-18T21:21:23.205Z,100825.31
2023-04-18T21:23:51.321Z,100822.97
2023-04-18T21:26:19.133Z,100826.00
2023-04-18T21:28:57.713Z,100824.09
2023-04-18T21:31:26.103Z,100833.44
2023-04-18T21:33:55.433Z,100831.22
2023-04-18T21:36:24.384Z,100833.97
2023-04-18T21:38:52.936Z,100828.72
2023-04-18T21:41:20.980Z,100828.00
2023-04-18T21:43:49.828Z,100835.25
2023-04-18T21:46:18.186Z,100834.31
2023-04-18T21:48:47.612Z,100834.75
2023-04-18T21:51:16.333Z,100837.34
2023-04-18T21:53:44.695Z,100833.00
2023-04-18T21:56:12.636Z,100833.19
2023-04-18T21:58:40.717Z,100837.28
2023-04-18T22:01:08.575Z,100831.59
2023-04-18T22:03:37.324Z,100835.00
2023-04-18T22:06:05.379Z,100831.88
2023-04-18T22:08:34.073Z,100832.00
2023-04-18T22:11:01.876Z,100843.13
2023-04-18T22:13:30.358Z,100836.81
2023-04-18T22:15:58.475Z,100840.81
2023-04-18T22:18:30.558Z,100845.34
2023-04-18T22:20:58.287Z,100842.91
2023-04-18T22:23:27.287Z,100837.19
2023-04-18T22:25:55.139Z,100839.03
2023-04-18T22:28:24.115Z,100848.06
2023-04-18T22:30:51.879Z,100845.91
2023-04-18T22:33:20.204Z,100840.75
2023-04-18T22:35:48.836Z,100844.56
2023-04-18T22:38:16.984Z,100853.28
2023-04-18T22:40:44.911Z,100842.59
2023-04-18T22:43:13.292Z,100852.22
2023-04-18T22:45:41.310Z,100843.91
2023-04-18T22:48:12.625Z,100854.94
2023-04-18T22:50:43.099Z,100847.53
2023-04-18T22:53:11.349Z,100851.81
2023-04-18T22:55:39.986Z,100852.34
2023-04-18T22:58:08.976Z,100854.88
2023-04-18T23:00:37.156Z,100854.69
2023-04-18T23:03:05.827Z,100852.00
2023-04-18T23:05:34.588Z,100857.81
2023-04-18T23:08:02.724Z,100862.50
2023-04-18T23:10:30.509Z,100853.91
2023-04-18T23:12:58.578Z,100855.13
2023-04-18T23:15:27.164Z,100850.88
2023-04-18T23:17:55.350Z,100853.59
2023-04-18T23:20:24.463Z,100853.41
2023-04-18T23:22:53.029Z,100851.50
2023-04-18T23:25:20.761Z,100855.50
2023-04-18T23:27:48.817Z,100853.75
2023-04-18T23:30:16.610Z,100854.09
2023-04-18T23:32:44.735Z,100848.25
2023-04-18T23:35:12.554Z,100852.41
2023-04-18T23:37:42.333Z,100843.75
2023-04-18T23:40:10.094Z,100844.19
2023-04-18T23:42:38.521Z,100839.03
2023-04-18T23:45:06.698Z,100843.59
2023-04-18T23:47:34.831Z,100842.50
2023-04-18T23:50:02.651Z,100840.81
2023-04-18T23:52:30.961Z,100843.50
2023-04-18T23:55:01.793Z,100833.78
2023-04-18T23:57:30.095Z,100840.13
2023-04-18T23:59:57.804Z,100840.38
